Time;durP1;ratioP1;P1;durP2;ratioP2;P2;SDS_P1;SDS_P2;PMS_P1;PMS_P2;Temp;Humidity;BMP_temperature;BMP_pressure;BME280_temperature;BME280_humidity;BME280_pressure;Samples;Min_cycle;Max_cycle;Signal;HPM_P1;HPM_P2
2022/01/28 00:02:32;;;;;;;30.08;5.63;;;;;;;;;;4922464;29;20142;-76
2022/01/28 00:04:55;;;;;;;31.25;4.85;;;;;;;;;;4920478;28;20055;-76
2022/01/28 00:07:21;;;;;;;30.95;3.83;;;;;;;;;;4939113;29;20055;-77
2022/01/28 00:09:47;;;;;;;23.48;4.20;;;;;;;;;;4925374;29;20499;-75
2022/01/28 00:12:14;;;;;;;22.65;3.95;;;;;;;;;;4918841;29;21334;-75
2022/01/28 00:14:53;;;;;;;26.63;4.32;;;;;;;;;;4917935;29;20075;-77
2022/01/28 00:18:36;;;;;;;24.17;3.50;;;;;;;;;;4907991;29;20058;-79
2022/01/28 00:39:00;;;;;;;27.38;4.47;;;;;;;;;;4921877;29;20052;-78
2022/01/28 00:41:26;;;;;;;12.70;2.75;;;;;;;;;;4938294;28;20104;-78
2022/01/28 00:43:52;;;;;;;17.17;3.13;;;;;;;;;;4923569;29;20055;-78
2022/01/28 00:46:19;;;;;;;28.88;3.80;;;;;;;;;;4913307;29;20054;-77
2022/01/28 00:48:45;;;;;;;19.40;4.15;;;;;;;;;;4940341;29;20043;-78
2022/01/28 00:51:11;;;;;;;19.58;3.75;;;;;;;;;;4920302;29;20048;-78
2022/01/28 00:53:37;;;;;;;25.10;4.18;;;;;;;;;;4909346;29;20054;-77
2022/01/28 00:56:03;;;;;;;15.90;3.22;;;;;;;;;;4926475;29;20043;-78
2022/01/28 00:58:29;;;;;;;21.92;5.03;;;;;;;;;;4927151;29;20051;-78
2022/01/28 01:00:55;;;;;;;18.98;3.53;;;;;;;;;;4911697;29;20146;-78
2022/01/28 01:03:21;;;;;;;22.58;3.92;;;;;;;;;;4944207;29;20151;-78
2022/01/28 01:05:47;;;;;;;28.83;3.67;;;;;;;;;;4909776;29;20051;-78
2022/01/28 01:08:14;;;;;;;22.02;3.95;;;;;;;;;;4923369;29;20165;-78
2022/01/28 01:10:40;;;;;;;26.88;3.95;;;;;;;;;;4922904;29;20083;-78
2022/01/28 01:13:06;;;;;;;21.20;4.00;;;;;;;;;;4904277;29;20636;-78
2022/01/28 01:15:40;;;;;;;24.08;3.60;;;;;;;;;;4937946;29;20054;-78
2022/01/28 01:18:33;;;;;;;28.50;3.90;;;;;;;;;;4926460;29;20083;-78
2022/01/28 01:21:07;;;;;;;28.67;4.10;;;;;;;;;;4928360;29;20055;-78
2022/01/28 01:23:37;;;;;;;24.70;3.97;;;;;;;;;;4928935;29;20453;-78
2022/01/28 01:28:34;;;;;;;31.02;5.03;;;;;;;;;;4930319;29;20135;-78
2022/01/28 01:31:02;;;;;;;27.58;4.88;;;;;;;;;;4910296;29;20055;-78
2022/01/28 01:33:31;;;;;;;27.95;3.92;;;;;;;;;;4908831;29;20043;-78
2022/01/28 01:36:01;;;;;;;25.88;3.90;;;;;;;;;;4924958;29;20488;-78
2022/01/28 01:38:31;;;;;;;32.88;5.28;;;;;;;;;;4928597;29;20313;-78
2022/01/28 01:41:00;;;;;;;34.35;5.80;;;;;;;;;;4911160;29;20130;-77
2022/01/28 01:54:06;;;;;;;35.72;5.28;;;;;;;;;;4930191;29;21248;-78
2022/01/28 01:56:34;;;;;;;40.70;7.07;;;;;;;;;;4935291;29;20055;-78
2022/01/28 01:59:00;;;;;;;27.70;4.53;;;;;;;;;;4906080;29;20905;-78
2022/01/28 02:01:26;;;;;;;36.15;5.53;;;;;;;;;;4927608;29;20055;-78
2022/01/28 02:03:52;;;;;;;26.65;4.25;;;;;;;;;;4915654;29;20152;-78
2022/01/28 02:06:19;;;;;;;33.58;4.75;;;;;;;;;;4919712;29;20047;-78
2022/01/28 02:08:45;;;;;;;32.47;4.72;;;;;;;;;;4937405;29;20122;-78
2022/01/28 02:11:11;;;;;;;32.15;4.80;;;;;;;;;;4925215;29;20055;-78
2022/01/28 02:13:38;;;;;;;34.38;6.32;;;;;;;;;;4933815;29;20035;-79
2022/01/28 02:16:05;;;;;;;31.25;5.82;;;;;;;;;;4929653;28;20054;-79
2022/01/28 02:18:32;;;;;;;34.88;4.85;;;;;;;;;;4948018;28;20105;-79
2022/01/28 02:21:08;;;;;;;28.75;4.43;;;;;;;;;;4935817;29;20129;-78
2022/01/28 02:23:34;;;;;;;34.58;5.00;;;;;;;;;;4934424;29;20483;-79
2022/01/28 02:26:02;;;;;;;25.58;5.03;;;;;;;;;;4912198;29;20134;-80
2022/01/28 02:28:32;;;;;;;36.70;5.97;;;;;;;;;;4929506;29;20052;-79
2022/01/28 02:30:58;;;;;;;27.92;4.85;;;;;;;;;;4928016;29;20122;-79
2022/01/28 02:33:25;;;;;;;36.13;5.15;;;;;;;;;;4942476;28;20823;-79
2022/01/28 02:35:52;;;;;;;31.77;4.45;;;;;;;;;;4933829;29;20051;-79
2022/01/28 02:38:21;;;;;;;37.53;4.97;;;;;;;;;;4929401;29;20456;-79
2022/01/28 02:40:53;;;;;;;35.95;4.65;;;;;;;;;;4936886;29;20055;-79
2022/01/28 02:43:39;;;;;;;24.55;4.25;;;;;;;;;;4929403;29;20043;-79
2022/01/28 02:46:09;;;;;;;32.65;4.20;;;;;;;;;;4936890;29;20399;-77
2022/01/28 02:48:39;;;;;;;30.20;4.97;;;;;;;;;;4918862;29;20039;-78
2022/01/28 02:51:16;;;;;;;31.02;5.68;;;;;;;;;;4931706;29;20050;-78
2022/01/28 02:53:51;;;;;;;31.85;3.75;;;;;;;;;;4914510;29;20047;-78
2022/01/28 02:58:44;;;;;;;23.08;4.28;;;;;;;;;;4933450;29;20043;-78
2022/01/28 03:01:13;;;;;;;25.65;4.20;;;;;;;;;;4928698;29;20063;-79
2022/01/28 03:03:40;;;;;;;30.45;4.28;;;;;;;;;;4932564;29;20050;-78
2022/01/28 03:06:06;;;;;;;27.17;4.47;;;;;;;;;;4928966;29;20051;-77
2022/01/28 03:08:33;;;;;;;31.00;5.38;;;;;;;;;;4946886;29;20045;-77
2022/01/28 03:11:31;;;;;;;24.20;3.85;;;;;;;;;;4928590;29;20055;-78
2022/01/28 03:16:55;;;;;;;23.02;3.60;;;;;;;;;;4928849;29;20083;-78
2022/01/28 03:19:24;;;;;;;21.08;4.63;;;;;;;;;;4911341;29;20054;-78
2022/01/28 03:21:58;;;;;;;25.95;4.47;;;;;;;;;;4928801;29;20234;-77
2022/01/28 03:24:24;;;;;;;;;;;;;;;;;;4930735;29;20387;-78
2022/01/28 03:26:53;;;;;;;20.02;3.70;;;;;;;;;;4917655;29;19945;-78
2022/01/28 03:29:19;;;;;;;24.55;3.15;;;;;;;;;;4924153;29;20302;-77
2022/01/28 03:31:45;;;;;;;25.58;4.38;;;;;;;;;;4925383;29;20054;-78
2022/01/28 03:34:11;;;;;;;24.33;4.32;;;;;;;;;;4916949;29;20114;-79
2022/01/28 03:36:38;;;;;;;24.33;4.07;;;;;;;;;;4904439;29;20487;-78
2022/01/28 03:39:04;;;;;;;27.48;4.03;;;;;;;;;;4934042;29;20139;-78
2022/01/28 03:41:31;;;;;;;24.73;4.35;;;;;;;;;;4917679;29;20126;-78
2022/01/28 03:44:00;;;;;;;28.63;4.10;;;;;;;;;;4928798;29;20087;-78
2022/01/28 03:46:27;;;;;;;32.58;4.88;;;;;;;;;;4932729;29;20054;-77
2022/01/28 03:48:57;;;;;;;26.25;4.63;;;;;;;;;;4917412;29;20134;-78
2022/01/28 03:51:23;;;;;;;23.13;4.35;;;;;;;;;;4917846;29;20155;-77
2022/01/28 03:53:50;;;;;;;31.02;3.85;;;;;;;;;;4946040;29;20515;-78
2022/01/28 03:56:16;;;;;;;23.50;4.20;;;;;;;;;;4893075;29;20133;-78
2022/01/28 03:58:43;;;;;;;27.17;4.15;;;;;;;;;;4922689;29;20054;-78
2022/01/28 04:01:16;;;;;;;35.05;5.13;;;;;;;;;;4929317;29;20051;-78
2022/01/28 04:03:49;;;;;;;36.63;6.67;;;;;;;;;;4917814;29;20047;-78
2022/01/28 04:11:47;;;;;;;21.85;4.63;;;;;;;;;;4931762;29;20059;-78
2022/01/28 04:14:20;;;;;;;33.78;5.85;;;;;;;;;;4912137;29;20063;-78
2022/01/28 04:19:30;;;;;;;34.83;4.47;;;;;;;;;;4929470;29;21536;-79
2022/01/28 04:21:56;;;;;;;31.80;5.82;;;;;;;;;;4932907;29;20086;-78
2022/01/28 04:24:22;;;;;;;39.35;4.95;;;;;;;;;;4934207;29;20371;-78
2022/01/28 04:26:48;;;;;;;30.13;5.43;;;;;;;;;;4916104;29;20044;-78
2022/01/28 04:29:15;;;;;;;27.58;4.35;;;;;;;;;;4914267;29;20547;-78
2022/01/28 04:31:43;;;;;;;32.65;5.38;;;;;;;;;;4901872;29;20118;-77
2022/01/28 04:34:10;;;;;;;29.17;5.05;;;;;;;;;;4924267;29;20051;-79
2022/01/28 04:36:45;;;;;;;38.13;6.18;;;;;;;;;;4927550;29;20078;-78
2022/01/28 04:39:25;;;;;;;27.35;5.28;;;;;;;;;;4933237;29;20479;-77
2022/01/28 04:42:01;;;;;;;40.08;5.75;;;;;;;;;;4948500;29;20399;-78
2022/01/28 04:44:38;;;;;;;30.73;5.68;;;;;;;;;;4934564;29;20047;-78
2022/01/28 04:55:32;;;;;;;31.70;4.93;;;;;;;;;;4924521;29;20119;-78
2022/01/28 04:58:19;;;;;;;33.63;6.47;;;;;;;;;;4916131;29;20130;-78
2022/01/28 05:01:15;;;;;;;35.05;5.57;;;;;;;;;;4933134;29;20131;-78
2022/01/28 05:26:00;;;;;;;35.80;6.13;;;;;;;;;;4930171;29;20051;-80
2022/01/28 05:28:26;;;;;;;36.42;5.43;;;;;;;;;;4915877;29;20054;-79
2022/01/28 05:30:52;;;;;;;37.88;5.53;;;;;;;;;;4948719;28;20054;-76
2022/01/28 05:33:18;;;;;;;27.08;4.88;;;;;;;;;;4934845;29;20047;-76
2022/01/28 05:35:44;;;;;;;25.52;5.95;;;;;;;;;;4928792;29;20130;-76
2022/01/28 05:38:10;;;;;;;37.55;6.07;;;;;;;;;;4932616;29;20078;-76
2022/01/28 05:40:36;;;;;;;33.88;5.45;;;;;;;;;;4928311;29;20050;-77
2022/01/28 05:43:03;;;;;;;33.67;5.05;;;;;;;;;;4934088;29;20051;-79
2022/01/28 05:45:29;;;;;;;26.88;4.70;;;;;;;;;;4951128;29;20078;-77
2022/01/28 05:47:55;;;;;;;27.08;4.82;;;;;;;;;;4937948;29;20209;-79
2022/01/28 05:50:21;;;;;;;40.45;5.43;;;;;;;;;;4920826;29;20050;-76
2022/01/28 05:52:47;;;;;;;29.92;5.43;;;;;;;;;;4937054;29;20079;-77
2022/01/28 05:55:13;;;;;;;33.75;4.25;;;;;;;;;;4922273;29;20070;-82
2022/01/28 05:57:39;;;;;;;24.52;4.28;;;;;;;;;;4934788;29;20051;-78
2022/01/28 06:00:06;;;;;;;31.20;4.80;;;;;;;;;;4947266;29;20044;-78
2022/01/28 06:02:32;;;;;;;28.15;5.07;;;;;;;;;;4934550;29;20075;-78
2022/01/28 06:04:58;;;;;;;27.27;4.57;;;;;;;;;;4920073;29;20062;-77
2022/01/28 06:07:24;;;;;;;30.98;6.70;;;;;;;;;;4938248;29;20050;-78
2022/01/28 06:09:50;;;;;;;27.38;4.95;;;;;;;;;;4930905;29;20052;-78
2022/01/28 06:12:16;;;;;;;36.85;7.00;;;;;;;;;;4934968;29;20069;-77
2022/01/28 06:14:42;;;;;;;29.10;5.00;;;;;;;;;;4914701;29;20043;-78
2022/01/28 06:17:08;;;;;;;29.23;5.28;;;;;;;;;;4928207;29;20055;-78
2022/01/28 06:19:35;;;;;;;33.70;5.93;;;;;;;;;;4955054;29;20047;-79
2022/01/28 06:22:01;;;;;;;28.52;4.05;;;;;;;;;;4933097;29;20051;-78
2022/01/28 06:24:28;;;;;;;40.17;5.88;;;;;;;;;;4936043;29;20051;-79
2022/01/28 06:26:54;;;;;;;30.52;4.88;;;;;;;;;;4906427;29;20133;-78
2022/01/28 06:29:20;;;;;;;27.80;4.22;;;;;;;;;;4948386;28;20101;-78
2022/01/28 06:31:47;;;;;;;33.38;5.43;;;;;;;;;;4943525;28;20055;-78
2022/01/28 06:34:13;;;;;;;31.10;4.10;;;;;;;;;;4927382;29;20051;-78
2022/01/28 06:36:39;;;;;;;34.53;5.50;;;;;;;;;;4918990;29;20098;-78
2022/01/28 06:39:05;;;;;;;28.45;3.60;;;;;;;;;;4917096;29;20079;-78
2022/01/28 06:41:32;;;;;;;31.67;4.20;;;;;;;;;;4936428;29;20479;-79
2022/01/28 06:43:58;;;;;;;21.98;3.90;;;;;;;;;;4921856;29;20062;-84
2022/01/28 06:46:24;;;;;;;32.20;4.28;;;;;;;;;;4929519;29;20043;-81
2022/01/28 06:48:51;;;;;;;27.70;4.03;;;;;;;;;;4928887;29;20063;-80
2022/01/28 06:51:17;;;;;;;34.47;4.97;;;;;;;;;;4935428;29;20043;-78
2022/01/28 06:53:43;;;;;;;28.85;7.03;;;;;;;;;;4949899;29;20122;-76
2022/01/28 06:56:09;;;;;;;29.98;5.32;;;;;;;;;;4934040;29;20051;-77
2022/01/28 06:58:35;;;;;;;23.27;4.35;;;;;;;;;;4937124;29;20149;-77
2022/01/28 07:01:01;;;;;;;25.85;4.38;;;;;;;;;;4932901;29;20479;-77
2022/01/28 07:03:27;;;;;;;23.83;3.90;;;;;;;;;;4936498;28;20054;-77
2022/01/28 07:05:53;;;;;;;32.03;4.18;;;;;;;;;;4937476;29;20043;-77
2022/01/28 07:08:19;;;;;;;37.65;5.68;;;;;;;;;;4931265;29;20062;-77
2022/01/28 07:10:45;;;;;;;26.20;4.97;;;;;;;;;;4934366;29;20043;-77
2022/01/28 07:13:13;;;;;;;36.20;4.60;;;;;;;;;;4937569;29;20137;-78
2022/01/28 07:15:39;;;;;;;28.30;4.38;;;;;;;;;;4939819;29;20516;-78
2022/01/28 07:18:06;;;;;;;35.33;5.55;;;;;;;;;;4912724;29;20060;-78
2022/01/28 07:20:33;;;;;;;28.65;4.90;;;;;;;;;;4938672;29;20047;-78
2022/01/28 07:23:00;;;;;;;32.10;4.80;;;;;;;;;;4927317;29;20141;-78
2022/01/28 07:25:26;;;;;;;25.20;4.35;;;;;;;;;;4935296;29;20044;-77
2022/01/28 07:27:52;;;;;;;32.10;4.32;;;;;;;;;;4919607;29;20121;-78
2022/01/28 07:30:19;;;;;;;29.48;4.40;;;;;;;;;;4927566;29;20043;-77
2022/01/28 07:32:45;;;;;;;28.58;4.25;;;;;;;;;;4916191;29;20476;-75
2022/01/28 07:35:11;;;;;;;28.10;4.32;;;;;;;;;;4911879;29;20131;-76
2022/01/28 07:37:37;;;;;;;29.85;4.93;;;;;;;;;;4932962;29;20053;-76
2022/01/28 07:40:04;;;;;;;32.90;4.78;;;;;;;;;;4902200;29;20047;-76
2022/01/28 07:42:34;;;;;;;29.25;4.97;;;;;;;;;;4921098;29;20126;-75
2022/01/28 07:45:00;;;;;;;31.48;5.93;;;;;;;;;;4936473;29;20410;-78
2022/01/28 07:47:27;;;;;;;33.78;4.95;;;;;;;;;;4924928;29;20059;-77
2022/01/28 07:49:53;;;;;;;44.97;5.38;;;;;;;;;;4932609;29;20055;-76
2022/01/28 07:52:19;;;;;;;34.38;5.45;;;;;;;;;;4914466;29;20057;-76
2022/01/28 07:54:49;;;;;;;25.73;3.83;;;;;;;;;;4934633;29;20043;-76
2022/01/28 07:57:15;;;;;;;32.53;5.00;;;;;;;;;;4934673;29;20050;-76
2022/01/28 07:59:41;;;;;;;35.08;5.82;;;;;;;;;;4931889;29;20054;-78
2022/01/28 08:02:08;;;;;;;33.72;4.75;;;;;;;;;;4936811;29;20194;-76
2022/01/28 08:04:34;;;;;;;27.95;4.22;;;;;;;;;;4929892;29;20039;-76
2022/01/28 08:07:00;;;;;;;32.85;5.20;;;;;;;;;;4938773;29;20114;-76
2022/01/28 08:09:26;;;;;;;23.60;4.53;;;;;;;;;;4904577;29;20043;-77
2022/01/28 08:11:52;;;;;;;36.22;3.80;;;;;;;;;;4924398;29;20202;-82
2022/01/28 08:14:18;;;;;;;35.20;5.03;;;;;;;;;;4918538;29;20082;-89
2022/01/28 08:16:44;;;;;;;29.33;4.43;;;;;;;;;;4906348;29;20070;-89
2022/01/28 08:19:10;;;;;;;34.22;4.80;;;;;;;;;;4927744;29;20060;-82
2022/01/28 08:21:36;;;;;;;36.58;4.88;;;;;;;;;;4920500;29;20395;-81
2022/01/28 08:24:02;;;;;;;36.58;6.00;;;;;;;;;;4928403;29;20059;-80
2022/01/28 08:26:28;;;;;;;30.50;5.47;;;;;;;;;;4949407;29;20110;-79
2022/01/28 08:28:54;;;;;;;29.20;5.20;;;;;;;;;;4910701;29;20052;-82
2022/01/28 08:31:20;;;;;;;33.13;5.07;;;;;;;;;;4918281;29;20111;-81
2022/01/28 08:33:47;;;;;;;28.65;5.10;;;;;;;;;;4955424;29;20207;-85
2022/01/28 08:36:13;;;;;;;30.42;4.97;;;;;;;;;;4942614;29;20047;-88
2022/01/28 08:38:44;;;;;;;31.38;5.00;;;;;;;;;;4922268;29;20143;-86
2022/01/28 08:41:12;;;;;;;30.77;5.15;;;;;;;;;;4904764;29;20064;-92
2022/01/28 08:43:39;;;;;;;26.38;4.93;;;;;;;;;;4937769;29;20054;-89
2022/01/28 08:46:05;;;;;;;33.25;6.38;;;;;;;;;;4919379;29;20070;-81
2022/01/28 08:48:31;;;;;;;32.35;4.82;;;;;;;;;;4921906;29;20074;-85
2022/01/28 08:50:58;;;;;;;33.30;4.45;;;;;;;;;;4923119;29;20043;-86
2022/01/28 08:53:24;;;;;;;27.88;4.57;;;;;;;;;;4939405;29;20499;-81
2022/01/28 08:55:50;;;;;;;27.70;4.47;;;;;;;;;;4934258;29;20047;-89
2022/01/28 08:58:16;;;;;;;31.67;5.90;;;;;;;;;;4935743;29;20126;-83
2022/01/28 09:00:48;;;;;;;34.45;6.22;;;;;;;;;;4919408;29;20043;-83
2022/01/28 09:03:18;;;;;;;30.67;5.70;;;;;;;;;;4925378;29;20107;-88
2022/01/28 09:05:44;;;;;;;31.88;6.13;;;;;;;;;;4931491;29;20145;-89
2022/01/28 09:08:11;;;;;;;30.20;5.18;;;;;;;;;;4931081;29;20043;-89
2022/01/28 09:10:41;;;;;;;27.25;4.50;;;;;;;;;;4951627;29;20051;-88
2022/01/28 09:15:38;;;;;;;33.45;5.30;;;;;;;;;;4917311;29;20106;-92
2022/01/28 09:18:04;;;;;;;33.88;5.93;;;;;;;;;;4935927;29;20066;-91
2022/01/28 09:20:31;;;;;;;28.33;4.88;;;;;;;;;;4936047;29;20130;-83
2022/01/28 09:22:58;;;;;;;36.28;5.80;;;;;;;;;;4935652;29;20146;-91
2022/01/28 09:25:24;;;;;;;35.60;5.32;;;;;;;;;;4921261;29;20502;-87
2022/01/28 09:27:50;;;;;;;24.70;4.07;;;;;;;;;;4918436;29;20047;-87
2022/01/28 09:30:16;;;;;;;40.58;5.57;;;;;;;;;;4919024;29;20076;-88
2022/01/28 09:32:43;;;;;;;38.05;4.95;;;;;;;;;;4903958;29;20051;-88
2022/01/28 09:35:09;;;;;;;29.50;4.35;;;;;;;;;;4919081;29;20108;-89
2022/01/28 09:37:35;;;;;;;35.28;4.70;;;;;;;;;;4897546;28;20049;-87
2022/01/28 09:40:02;;;;;;;27.70;3.97;;;;;;;;;;4918971;29;20082;-85
2022/01/28 09:42:31;;;;;;;32.40;5.45;;;;;;;;;;4918508;29;20428;-85
2022/01/28 09:45:01;;;;;;;32.45;4.68;;;;;;;;;;4919778;29;20043;-89
2022/01/28 09:47:27;;;;;;;30.65;4.93;;;;;;;;;;4910142;29;20047;-89
2022/01/28 09:49:53;;;;;;;33.85;5.75;;;;;;;;;;4915070;29;20850;-88
2022/01/28 09:52:20;;;;;;;30.08;4.70;;;;;;;;;;4931205;29;20055;-87
2022/01/28 09:54:46;;;;;;;23.98;5.47;;;;;;;;;;4917518;29;20572;-85
2022/01/28 09:57:17;;;;;;;27.23;4.75;;;;;;;;;;4920214;29;20055;-88
2022/01/28 09:59:43;;;;;;;34.30;5.38;;;;;;;;;;4924219;29;20050;-85
2022/01/28 10:02:09;;;;;;;35.55;5.88;;;;;;;;;;4920487;29;20051;-87
2022/01/28 10:04:35;;;;;;;35.80;4.68;;;;;;;;;;4918556;29;20101;-81
2022/01/28 10:07:11;;;;;;;31.88;4.68;;;;;;;;;;4934524;29;20126;-89
2022/01/28 10:09:53;;;;;;;27.27;4.35;;;;;;;;;;4916543;29;20059;-87
2022/01/28 10:12:25;;;;;;;30.60;5.22;;;;;;;;;;4925423;29;20039;-89
2022/01/28 10:15:00;;;;;;;34.13;4.70;;;;;;;;;;4918230;29;20058;-89
2022/01/28 10:17:26;;;;;;;28.42;4.82;;;;;;;;;;4921787;29;20051;-88
2022/01/28 10:20:06;;;;;;;25.77;4.30;;;;;;;;;;4916378;29;20141;-85
2022/01/28 10:22:32;;;;;;;28.63;5.32;;;;;;;;;;4936866;29;20055;-87
2022/01/28 10:24:58;;;;;;;35.83;6.60;;;;;;;;;;4938367;29;20051;-84
2022/01/28 10:27:24;;;;;;;30.85;5.03;;;;;;;;;;4920529;29;20091;-89
2022/01/28 10:29:50;;;;;;;31.33;5.18;;;;;;;;;;4930393;29;20054;-93
2022/01/28 10:32:24;;;;;;;25.05;3.80;;;;;;;;;;4933205;28;20182;-81
2022/01/28 10:34:51;;;;;;;28.17;4.35;;;;;;;;;;4914590;28;20043;-95
2022/01/28 10:37:18;;;;;;;31.42;4.20;;;;;;;;;;4921921;28;20070;-93
2022/01/28 10:39:44;;;;;;;25.83;4.18;;;;;;;;;;4906401;29;20055;-84
2022/01/28 10:42:11;;;;;;;32.92;4.63;;;;;;;;;;4927911;29;20058;-88
2022/01/28 10:44:52;;;;;;;31.95;4.32;;;;;;;;;;4956048;29;20047;-80
2022/01/28 10:47:29;;;;;;;26.42;5.43;;;;;;;;;;4919973;29;20071;-91
2022/01/28 10:49:55;;;;;;;30.88;4.45;;;;;;;;;;4930415;29;20043;-86
2022/01/28 10:52:30;;;;;;;38.80;5.93;;;;;;;;;;4935924;29;20055;-90
2022/01/28 10:54:59;;;;;;;33.42;5.45;;;;;;;;;;4917903;29;20048;-93
2022/01/28 10:57:25;;;;;;;23.30;4.15;;;;;;;;;;4935428;29;20079;-85
2022/01/28 10:59:51;;;;;;;23.88;4.72;;;;;;;;;;4943531;29;20055;-90
2022/01/28 11:02:18;;;;;;;32.85;4.75;;;;;;;;;;4941633;29;20051;-90
2022/01/28 11:04:46;;;;;;;32.22;5.28;;;;;;;;;;4939589;29;20069;-94
2022/01/28 11:07:12;;;;;;;26.52;4.80;;;;;;;;;;4926215;29;20070;-95
2022/01/28 11:09:40;;;;;;;34.33;4.45;;;;;;;;;;4908488;29;20051;-91
2022/01/28 11:12:07;;;;;;;32.80;6.45;;;;;;;;;;4924250;29;20439;-87
2022/01/28 11:14:33;;;;;;;33.55;6.20;;;;;;;;;;4921689;29;20440;-89
2022/01/28 11:17:00;;;;;;;36.33;6.50;;;;;;;;;;4909783;29;20462;-84
2022/01/28 11:19:28;;;;;;;35.97;7.10;;;;;;;;;;4936248;29;20480;-83
2022/01/28 11:22:01;;;;;;;28.05;5.70;;;;;;;;;;4944035;29;20435;-86
2022/01/28 11:24:45;;;;;;;33.42;5.53;;;;;;;;;;4904510;29;20439;-82
2022/01/28 11:27:19;;;;;;;34.55;6.28;;;;;;;;;;4931318;29;20827;-87
2022/01/28 11:29:45;;;;;;;38.08;6.85;;;;;;;;;;4915336;29;20430;-84
2022/01/28 11:32:14;;;;;;;29.48;6.15;;;;;;;;;;4921707;29;20427;-83
2022/01/28 11:34:57;;;;;;;28.98;6.22;;;;;;;;;;4932255;29;20834;-83
2022/01/28 11:37:25;;;;;;;27.08;6.82;;;;;;;;;;4934370;28;20513;-86
2022/01/28 11:39:51;;;;;;;37.38;6.70;;;;;;;;;;4916961;29;20455;-86
2022/01/28 11:42:30;;;;;;;30.30;5.95;;;;;;;;;;4907009;29;20470;-92
2022/01/28 11:45:00;;;;;;;26.83;5.07;;;;;;;;;;4916607;29;20472;-89
2022/01/28 11:47:28;;;;;;;31.75;5.05;;;;;;;;;;4948361;29;20439;-88
2022/01/28 11:49:54;;;;;;;31.90;5.93;;;;;;;;;;4920862;29;20441;-89
2022/01/28 11:52:27;;;;;;;32.67;5.07;;;;;;;;;;4919629;29;20450;-80
2022/01/28 11:54:54;;;;;;;35.42;5.20;;;;;;;;;;4936325;29;20439;-84
2022/01/28 11:57:21;;;;;;;22.65;4.63;;;;;;;;;;4927685;29;20426;-82
2022/01/28 11:59:48;;;;;;;31.40;5.38;;;;;;;;;;4919776;29;20781;-80
2022/01/28 12:02:15;;;;;;;30.15;4.97;;;;;;;;;;4907293;29;21000;-80
2022/01/28 12:04:42;;;;;;;27.23;4.30;;;;;;;;;;4918490;29;20438;-82
2022/01/28 12:07:26;;;;;;;26.10;4.00;;;;;;;;;;4930267;29;20439;-81
2022/01/28 12:09:54;;;;;;;25.38;4.57;;;;;;;;;;4935277;29;20541;-89
2022/01/28 12:12:21;;;;;;;27.65;4.28;;;;;;;;;;4921248;29;20437;-89
2022/01/28 12:14:53;;;;;;;25.80;4.47;;;;;;;;;;4934958;29;20441;-82
2022/01/28 12:17:36;;;;;;;26.33;4.30;;;;;;;;;;4910793;29;20441;-95
2022/01/28 12:20:24;;;;;;;26.00;5.10;;;;;;;;;;4929231;29;20518;-85
2022/01/28 12:23:02;;;;;;;25.80;4.70;;;;;;;;;;4909830;29;20783;-84
2022/01/28 12:25:37;;;;;;;28.40;4.70;;;;;;;;;;4931116;29;20521;-83
2022/01/28 12:28:13;;;;;;;25.20;4.50;;;;;;;;;;4952579;29;20433;-90
2022/01/28 12:30:39;;;;;;;29.58;5.07;;;;;;;;;;4935874;29;20441;-86
2022/01/28 12:33:05;;;;;;;25.38;4.40;;;;;;;;;;4954397;29;20525;-85
2022/01/28 12:35:31;;;;;;;26.63;4.63;;;;;;;;;;4937697;29;20437;-89
2022/01/28 12:38:02;;;;;;;29.10;4.68;;;;;;;;;;4920373;29;20445;-91
2022/01/28 12:40:35;;;;;;;26.50;5.03;;;;;;;;;;4941781;29;20765;-87
2022/01/28 12:43:04;;;;;;;27.37;4.67;;;;;;;;;;4917332;29;20873;-84
2022/01/28 12:45:30;;;;;;;25.08;4.30;;;;;;;;;;4932803;29;20430;-92
2022/01/28 12:47:57;;;;;;;26.25;4.57;;;;;;;;;;4931338;29;20518;-90
2022/01/28 12:50:24;;;;;;;31.17;4.68;;;;;;;;;;4916037;29;20808;-83
2022/01/28 12:52:51;;;;;;;22.70;3.83;;;;;;;;;;4952184;29;20434;-82
2022/01/28 12:55:17;;;;;;;23.17;3.92;;;;;;;;;;4925153;29;20444;-91
2022/01/28 12:57:44;;;;;;;23.65;4.75;;;;;;;;;;4952884;29;20428;-89
2022/01/28 13:00:11;;;;;;;22.70;4.00;;;;;;;;;;4919923;29;20701;-92
2022/01/28 13:02:37;;;;;;;27.33;4.50;;;;;;;;;;4927727;29;20430;-95
2022/01/28 13:10:20;;;;;;;26.63;4.43;;;;;;;;;;4926859;29;20577;-83
2022/01/28 13:12:46;;;;;;;28.77;4.47;;;;;;;;;;4922499;29;20441;-83
2022/01/28 13:15:13;;;;;;;21.30;4.40;;;;;;;;;;4928243;29;20677;-81
2022/01/28 13:17:54;;;;;;;23.33;4.25;;;;;;;;;;4915387;29;20956;-84
2022/01/28 13:20:20;;;;;;;28.00;4.53;;;;;;;;;;4916646;29;20442;-86
2022/01/28 13:22:50;;;;;;;25.33;4.38;;;;;;;;;;4944027;29;20449;-86
2022/01/28 13:25:18;;;;;;;25.13;4.00;;;;;;;;;;4922739;29;20474;-91
2022/01/28 13:27:50;;;;;;;27.08;3.85;;;;;;;;;;4920238;29;20802;-90
2022/01/28 13:30:16;;;;;;;26.00;4.40;;;;;;;;;;4916886;29;20457;-92
2022/01/28 13:32:45;;;;;;;25.50;3.95;;;;;;;;;;4927419;29;20789;-90
2022/01/28 13:35:16;;;;;;;25.08;4.40;;;;;;;;;;4917601;29;20968;-92
2022/01/28 13:37:47;;;;;;;26.02;4.25;;;;;;;;;;4935728;29;20519;-90
2022/01/28 13:40:19;;;;;;;24.58;3.90;;;;;;;;;;4916252;29;20440;-89
2022/01/28 13:43:02;;;;;;;27.40;4.72;;;;;;;;;;4921645;29;20485;-88
2022/01/28 13:45:30;;;;;;;26.05;4.50;;;;;;;;;;4908451;29;20887;-89
2022/01/28 13:47:56;;;;;;;27.27;4.60;;;;;;;;;;4901597;29;20439;-84
2022/01/28 13:50:26;;;;;;;21.48;4.53;;;;;;;;;;4917712;29;20441;-88
2022/01/28 13:53:22;;;;;;;24.02;4.50;;;;;;;;;;4915598;29;20564;-88
2022/01/28 13:55:49;;;;;;;25.45;4.25;;;;;;;;;;4908539;29;20443;-91
2022/01/28 13:58:15;;;;;;;20.55;3.95;;;;;;;;;;4921237;29;20435;-88
2022/01/28 14:00:43;;;;;;;22.65;3.70;;;;;;;;;;4907320;29;20437;-90
2022/01/28 14:03:19;;;;;;;23.45;3.88;;;;;;;;;;4938213;29;20847;-90
2022/01/28 14:05:49;;;;;;;23.73;3.97;;;;;;;;;;4907475;29;20477;-88
2022/01/28 14:08:15;;;;;;;26.02;4.53;;;;;;;;;;4934133;29;20728;-90
2022/01/28 14:10:41;;;;;;;24.50;4.93;;;;;;;;;;4938832;29;20889;-91
2022/01/28 14:13:20;;;;;;;22.00;3.63;;;;;;;;;;4938616;29;20429;-90
2022/01/28 14:16:03;;;;;;;19.67;3.45;;;;;;;;;;4908191;29;20437;-93
2022/01/28 14:18:29;;;;;;;20.67;3.90;;;;;;;;;;4921390;29;20525;-80
2022/01/28 14:20:55;;;;;;;23.33;4.32;;;;;;;;;;4935238;29;20777;-88
2022/01/28 14:23:21;;;;;;;22.52;3.88;;;;;;;;;;4937927;29;20434;-89
2022/01/28 14:25:47;;;;;;;17.95;3.50;;;;;;;;;;4907301;29;20516;-89
2022/01/28 14:30:43;;;;;;;19.23;3.47;;;;;;;;;;4933460;29;20426;-92
2022/01/28 14:33:10;;;;;;;19.88;3.58;;;;;;;;;;4939260;29;20410;-90
2022/01/28 14:35:38;;;;;;;23.65;3.63;;;;;;;;;;4907526;29;20433;-90
2022/01/28 14:38:04;;;;;;;21.23;3.60;;;;;;;;;;4937219;29;20437;-85
2022/01/28 14:40:31;;;;;;;18.40;3.10;;;;;;;;;;4937988;29;20777;-87
2022/01/28 14:42:57;;;;;;;23.03;3.70;;;;;;;;;;4920135;29;20993;-88
2022/01/28 14:45:23;;;;;;;17.35;3.00;;;;;;;;;;4913967;29;20462;-87
2022/01/28 14:47:49;;;;;;;17.63;3.10;;;;;;;;;;4931083;29;20435;-91
2022/01/28 14:50:15;;;;;;;17.65;3.50;;;;;;;;;;4917780;29;20553;-91
2022/01/28 14:52:41;;;;;;;21.63;3.65;;;;;;;;;;4922434;29;20429;-90
2022/01/28 14:55:08;;;;;;;17.02;3.50;;;;;;;;;;4919581;29;20444;-87
2022/01/28 14:57:34;;;;;;;21.20;4.25;;;;;;;;;;4931670;29;20425;-90
2022/01/28 15:00:00;;;;;;;21.92;3.67;;;;;;;;;;4911708;29;20531;-82
2022/01/28 15:02:27;;;;;;;20.50;3.60;;;;;;;;;;4913825;29;20531;-82
2022/01/28 15:04:55;;;;;;;24.17;3.65;;;;;;;;;;4901975;29;20504;-90
2022/01/28 15:07:24;;;;;;;21.83;3.47;;;;;;;;;;4933801;29;20434;-88
2022/01/28 15:09:52;;;;;;;21.08;3.50;;;;;;;;;;4934468;29;20468;-83
2022/01/28 15:12:18;;;;;;;20.80;3.58;;;;;;;;;;4935254;29;20497;-80
2022/01/28 15:14:44;;;;;;;17.42;4.00;;;;;;;;;;4952848;29;20436;-83
2022/01/28 15:17:10;;;;;;;18.87;3.57;;;;;;;;;;4940015;29;20439;-92
2022/01/28 15:19:36;;;;;;;22.02;3.70;;;;;;;;;;4924954;29;20846;-88
2022/01/28 15:22:03;;;;;;;23.55;3.95;;;;;;;;;;4951396;29;20785;-86
2022/01/28 15:24:29;;;;;;;26.23;3.97;;;;;;;;;;4913481;29;20467;-94
2022/01/28 15:26:55;;;;;;;23.33;4.57;;;;;;;;;;4920549;29;20844;-88
2022/01/28 15:37:08;;;;;;;18.55;3.53;;;;;;;;;;4933581;29;20461;-88
2022/01/28 15:39:37;;;;;;;22.23;3.50;;;;;;;;;;4931100;29;20433;-88
2022/01/28 15:42:08;;;;;;;24.70;4.32;;;;;;;;;;4935487;29;20449;-79
2022/01/28 15:44:34;;;;;;;20.60;4.20;;;;;;;;;;4933227;29;20504;-85
2022/01/28 15:47:03;;;;;;;22.88;4.38;;;;;;;;;;4925018;29;21107;-85
2022/01/28 15:49:29;;;;;;;26.60;4.10;;;;;;;;;;4949146;29;20536;-84
2022/01/28 15:51:55;;;;;;;26.17;4.57;;;;;;;;;;4948639;29;20445;-83
2022/01/28 15:54:21;;;;;;;26.33;4.30;;;;;;;;;;4933791;29;20445;-84
2022/01/28 15:56:48;;;;;;;22.45;4.10;;;;;;;;;;4930829;29;20501;-83
2022/01/28 15:59:14;;;;;;;24.55;3.67;;;;;;;;;;4940214;29;20513;-86
2022/01/28 16:01:40;;;;;;;19.57;3.50;;;;;;;;;;4930247;29;20995;-85
2022/01/28 16:04:06;;;;;;;21.23;3.27;;;;;;;;;;4940282;29;20825;-78
2022/01/28 16:06:36;;;;;;;22.10;3.97;;;;;;;;;;4894862;29;20470;-84
2022/01/28 16:09:04;;;;;;;24.67;3.60;;;;;;;;;;4930748;29;20531;-84
2022/01/28 16:11:33;;;;;;;17.23;3.22;;;;;;;;;;4915387;29;20915;-83
2022/01/28 16:14:12;;;;;;;23.35;3.78;;;;;;;;;;4945813;29;20424;-93